Overview Statistics Trail Chart Weather Telemetry Raw packets
 

This is the latest recevied weather packets stored in our database for station/object W8RSN-13. If no packets are shown the sender has not sent any weather packets the latest 10 day(s).

<< 54 55 56 57 58 59 60 >>
Time Temp. Humidity Pressure Rain* Wind** Luminosity Snow
1788313768 27.22° C 35% 1015 hPa - - - -
1788313467 27.22° C 36% 1015 hPa - - - -
1788313166 27.22° C 36% 1014.9 hPa - - - -
1788312865 27.22° C 35% 1015 hPa - - - -
1788312564 27.22° C 35% 1015.1 hPa - - - -
1788312263 27.22° C 35% 1015.1 hPa - - - -
1788311962 27.78° C 33% 1015.1 hPa - - - -
1788311662 27.78° C 32% 1014.9 hPa - - - -
1788311360 28.33° C 31% 1015.1 hPa - - - -
1788311060 28.89° C 29% 1015.2 hPa - - - -
1788310759 28.89° C 27% 1015 hPa - - - -
1788310458 29.44° C 27% 1015.1 hPa - - - -
1788310157 29.44° C 27% 1015 hPa - - - -
1788309856 30.56° C 25% 1015 hPa - - - -
1788309575 30.56° C 23% 1015.1 hPa - - - -
1788309274 30.56° C 24% 1015.1 hPa - - - -
1788308974 30.56° C 24% 1015.2 hPa - - - -
1788308673 30.56° C 24% 1015.1 hPa - - - -
1788308372 30° C 24% 1015 hPa - - - -
1788308071 30.56° C 23% 1015.2 hPa - - - -
1788307770 31.11° C 23% 1015.3 hPa - - - -
1788307469 30.56° C 25% 1015.2 hPa - - - -
1788307168 31.11° C 24% 1015.4 hPa - - - -
1788306867 31.11° C 21% 1015.4 hPa - - - -
1788306566 31.11° C 24% 1015.1 hPa - - - -

* Rain since midnight (hover to see other rain measurements)
** Current wind speed in m/s (hover to see current wind gust speed)